createdAt,value
2024-04-12T00:01:22.244Z,101839.04
2024-04-12T00:04:53.927Z,101840.98
2024-04-12T00:08:22.482Z,101838.13
2024-04-12T00:11:51.059Z,101843.45
2024-04-12T00:15:19.901Z,101840.02
2024-04-12T00:18:48.512Z,101845.21
2024-04-12T00:22:17.038Z,101843.98
2024-04-12T00:25:45.661Z,101843.21
2024-04-12T00:29:14.315Z,101841.48
2024-04-12T00:32:42.931Z,101842.64
2024-04-12T00:36:11.748Z,101845.70
2024-04-12T00:39:40.519Z,101846.06
2024-04-12T00:43:09.510Z,101841.46
2024-04-12T00:46:41.116Z,101838.09
2024-04-12T00:50:12.630Z,101832.97
2024-04-12T00:53:41.391Z,101834.67
2024-04-12T00:57:02.630Z,101832.80
2024-04-12T01:00:31.531Z,101826.30
2024-04-12T01:04:00.314Z,101824.27
2024-04-12T01:07:24.551Z,101823.76
2024-04-12T01:10:43.994Z,101819.17
2024-04-12T01:14:12.600Z,101814.91
2024-04-12T01:17:42.359Z,101821.42
2024-04-12T01:21:01.538Z,101819.19
2024-04-12T01:24:30.221Z,101826.89
2024-04-12T01:27:58.815Z,101828.11
2024-04-12T01:31:28.455Z,101830.69
2024-04-12T01:34:58.297Z,101833.45
2024-04-12T01:38:35.902Z,101829.38
2024-04-12T01:42:07.498Z,101825.80
2024-04-12T01:45:35.887Z,101822.93
2024-04-12T01:49:05.238Z,101823.30
2024-04-12T01:52:33.999Z,101829.14
2024-04-12T01:56:02.579Z,101828.83
2024-04-12T01:59:31.151Z,101833.09
2024-04-12T02:02:59.670Z,101831.73
2024-04-12T02:06:18.981Z,101827.31
2024-04-12T02:09:47.737Z,101829.39
2024-04-12T02:13:16.304Z,101828.16
2024-04-12T02:16:44.960Z,101825.97
2024-04-12T02:20:13.543Z,101827.70
2024-04-12T02:23:42.253Z,101827.20
2024-04-12T02:27:11.139Z,101824.81
2024-04-12T02:30:39.660Z,101818.62
2024-04-12T02:34:08.250Z,101824.92
2024-04-12T02:37:38.025Z,101829.13
2024-04-12T02:41:06.964Z,101828.54
2024-04-12T02:44:35.618Z,101829.92
2024-04-12T02:48:04.255Z,101829.83
2024-04-12T02:51:35.959Z,101827.98
2024-04-12T02:55:04.090Z,101829.76
2024-04-12T02:58:32.670Z,101821.68
2024-04-12T03:02:04.673Z,101827.95
2024-04-12T03:05:33.247Z,101826.52
2024-04-12T03:08:51.918Z,101820.73
2024-04-12T03:12:20.754Z,101815.81
2024-04-12T03:15:43.202Z,101822.73
2024-04-12T03:19:12.152Z,101822.93
2024-04-12T03:22:41.735Z,101828.23
2024-04-12T03:30:08.415Z,101829.20
2024-04-12T03:33:37.229Z,101828.74
2024-04-12T03:37:05.863Z,101827.65
2024-04-12T03:40:37.241Z,101823.48
2024-04-12T03:44:05.064Z,101822.49
2024-04-12T03:47:33.909Z,101827.33
2024-04-12T03:51:02.728Z,101824.75
2024-04-12T03:54:34.370Z,101836.64
2024-04-12T03:58:03.003Z,101837.70
2024-04-12T04:01:31.572Z,101829.44
2024-04-12T04:05:00.158Z,101826.57
2024-04-12T04:08:28.770Z,101835.80
2024-04-12T04:11:57.354Z,101832.38
2024-04-12T04:15:26.183Z,101828.42
2024-04-12T04:18:54.795Z,101831.16
2024-04-12T04:22:23.840Z,101831.87
2024-04-12T04:25:54.291Z,101832.20
2024-04-12T04:29:23.799Z,101828.67
2024-04-12T04:32:45.413Z,101828.99
2024-04-12T04:36:13.987Z,101831.05
2024-04-12T04:39:42.635Z,101829.54
2024-04-12T04:43:03.922Z,101830.65
2024-04-12T04:46:12.048Z,101831.23
2024-04-12T04:49:40.817Z,101827.66
2024-04-12T04:53:09.283Z,101827.89
2024-04-12T04:56:37.937Z,101828.09
2024-04-12T05:00:06.574Z,101823.75
2024-04-12T05:03:35.379Z,101821.21
2024-04-12T05:07:04.503Z,101832.81
2024-04-12T05:10:33.176Z,101838.45
2024-04-12T05:14:01.707Z,101846.41
2024-04-12T05:17:27.726Z,101851.70
2024-04-12T05:21:02.357Z,101857.27
2024-04-12T05:24:31.076Z,101859.10
2024-04-12T05:28:01.859Z,101860.93
2024-04-12T05:31:23.177Z,101861.41
2024-04-12T05:34:51.571Z,101854.91
2024-04-12T05:38:20.361Z,101846.37
2024-04-12T05:41:48.831Z,101847.76
2024-04-12T05:45:17.334Z,101847.78
2024-04-12T05:48:38.942Z,101850.48
2024-04-12T05:52:06.882Z,101848.66
2024-04-12T05:55:35.468Z,101851.98
2024-04-12T05:59:04.258Z,101858.15
2024-04-12T06:02:33.079Z,101855.25
2024-04-12T06:06:01.890Z,101854.30
2024-04-12T06:09:23.569Z,101855.30
2024-04-12T06:12:38.506Z,101854.12
2024-04-12T06:15:46.754Z,101848.59
2024-04-12T06:19:05.977Z,101851.14
2024-04-12T06:22:34.993Z,101852.48
2024-04-12T06:26:06.563Z,101847.19
2024-04-12T06:29:38.565Z,101844.73
2024-04-12T06:33:08.098Z,101843.99
2024-04-12T06:36:36.912Z,101844.30
2024-04-12T06:40:05.656Z,101842.60
2024-04-12T06:43:34.102Z,101836.73
2024-04-12T06:47:02.648Z,101832.70
2024-04-12T06:50:31.421Z,101833.17
2024-04-12T06:54:08.970Z,101841.71
2024-04-12T06:57:43.906Z,101841.33
2024-04-12T07:01:12.680Z,101839.50
2024-04-12T07:04:41.190Z,101843.72
2024-04-12T07:08:10.287Z,101842.95
2024-04-12T07:11:41.167Z,101842.05
2024-04-12T07:15:10.117Z,101840.80
2024-04-12T07:18:38.724Z,101847.09
2024-04-12T07:22:07.243Z,101845.08
2024-04-12T07:25:35.980Z,101847.19
2024-04-12T07:29:04.723Z,101850.98
2024-04-12T07:32:33.351Z,101855.65
2024-04-12T07:36:02.502Z,101854.29
2024-04-12T07:39:30.990Z,101857.39
2024-04-12T07:42:59.906Z,101862.17
2024-04-12T07:46:27.310Z,101862.52
2024-04-12T07:49:55.947Z,101861.81
2024-04-12T07:53:42.684Z,101870.27
2024-04-12T07:57:11.280Z,101873.33
2024-04-12T08:00:40.268Z,101875.55
2024-04-12T08:04:08.900Z,101876.07
2024-04-12T08:07:37.682Z,101872.13
2024-04-12T08:10:53.317Z,101869.20
2024-04-12T08:14:11.763Z,101870.91
2024-04-12T08:17:40.515Z,101871.10
2024-04-12T08:21:10.503Z,101871.94
2024-04-12T08:24:42.174Z,101868.34
2024-04-12T08:28:11.242Z,101869.23
2024-04-12T08:31:40.003Z,101870.24
2024-04-12T08:35:09.031Z,101869.89
2024-04-12T08:38:38.448Z,101872.61
2024-04-12T08:42:07.033Z,101872.80
2024-04-12T08:45:36.128Z,101876.20
2024-04-12T08:49:05.112Z,101876.88
2024-04-12T08:52:34.488Z,101875.84
2024-04-12T08:56:06.268Z,101873.45
2024-04-12T08:59:34.791Z,101865.55
2024-04-12T09:03:03.501Z,101865.41
2024-04-12T09:06:35.949Z,101863.24
2024-04-12T09:10:04.539Z,101865.67
2024-04-12T09:13:33.382Z,101865.67
2024-04-12T09:17:08.078Z,101867.55
2024-04-12T09:20:37.111Z,101865.86
2024-04-12T09:24:06.010Z,101869.63
2024-04-12T09:27:35.126Z,101866.23
2024-04-12T09:31:02.109Z,101856.83
2024-04-12T09:34:20.646Z,101858.70
2024-04-12T09:37:50.556Z,101853.73
2024-04-12T09:41:02.170Z,101851.66
2024-04-12T09:44:30.791Z,101853.73
2024-04-12T09:47:57.959Z,101852.70
2024-04-12T09:51:25.710Z,101853.20
2024-04-12T09:54:53.123Z,101849.77
2024-04-12T09:58:18.856Z,101853.85
2024-04-12T10:01:45.998Z,101859.34
2024-04-12T10:04:52.575Z,101859.14
2024-04-12T10:08:19.831Z,101851.92
2024-04-12T10:11:46.704Z,101852.64
2024-04-12T10:15:14.200Z,101851.61
2024-04-12T10:18:50.546Z,101845.63
2024-04-12T10:22:17.729Z,101843.56
2024-04-12T10:25:33.564Z,101840.99
2024-04-12T10:29:00.838Z,101837.56
2024-04-12T10:32:20.666Z,101836.55
2024-04-12T10:36:07.436Z,101834.86
2024-04-12T10:39:36.266Z,101832.97
2024-04-12T10:43:05.828Z,101832.11
2024-04-12T10:46:34.841Z,101829.20
2024-04-12T10:50:03.849Z,101828.13
2024-04-12T10:53:32.663Z,101827.27
2024-04-12T10:57:03.403Z,101820.56
2024-04-12T11:00:37.409Z,101820.20
2024-04-12T11:04:06.341Z,101818.16
2024-04-12T11:07:35.216Z,101813.36
2024-04-12T11:11:04.003Z,101808.70
2024-04-12T11:14:38.720Z,101803.20
2024-04-12T11:18:05.939Z,101803.87
2024-04-12T11:21:33.317Z,101798.14
2024-04-12T11:25:00.220Z,101792.23
2024-04-12T11:28:27.222Z,101790.11
2024-04-12T11:31:55.959Z,101788.05
2024-04-12T11:35:25.000Z,101785.80
2024-04-12T11:38:53.762Z,101783.39
2024-04-12T11:42:22.401Z,101782.27
2024-04-12T11:45:51.296Z,101783.13
2024-04-12T11:49:19.838Z,101774.48
2024-04-12T11:52:48.401Z,101771.89
2024-04-12T11:56:10.502Z,101771.23
2024-04-12T11:59:39.157Z,101769.75
2024-04-12T12:03:07.725Z,101769.27
2024-04-12T12:06:36.312Z,101762.86
2024-04-12T12:09:55.135Z,101762.84
2024-04-12T12:13:23.669Z,101760.75
2024-04-12T12:16:52.186Z,101766.27
2024-04-12T12:20:20.794Z,101771.13
2024-04-12T12:23:31.810Z,101773.92
2024-04-12T12:27:00.525Z,101768.09
2024-04-12T12:30:29.272Z,101765.20
2024-04-12T12:33:57.798Z,101762.28
2024-04-12T12:37:26.485Z,101760.04
2024-04-12T12:40:55.053Z,101748.17
2024-04-12T12:44:23.605Z,101746.12
2024-04-12T12:47:54.480Z,101745.09
2024-04-12T12:51:23.336Z,101742.50
2024-04-12T12:54:51.875Z,101740.80
2024-04-12T12:58:32.904Z,101742.34
2024-04-12T13:02:04.166Z,101737.02
2024-04-12T13:05:35.720Z,101734.95
2024-04-12T13:09:04.693Z,101732.38
2024-04-12T13:12:33.258Z,101722.91
2024-04-12T13:16:01.840Z,101718.44
2024-04-12T13:19:31.506Z,101715.34
2024-04-12T13:23:00.302Z,101714.65
2024-04-12T13:26:28.790Z,101708.97
2024-04-12T13:29:57.488Z,101703.61
2024-04-12T13:33:26.335Z,101692.72
2024-04-12T13:36:55.022Z,101690.08
2024-04-12T13:40:23.506Z,101686.59
2024-04-12T13:43:52.338Z,101683.92
2024-04-12T13:47:19.842Z,101681.29
2024-04-12T13:50:46.975Z,101680.38
2024-04-12T13:54:15.656Z,101677.56
2024-04-12T13:57:37.226Z,101671.31
2024-04-12T14:01:06.221Z,101665.14
2024-04-12T14:04:34.875Z,101657.53
2024-04-12T14:08:03.624Z,101649.42
2024-04-12T14:11:32.196Z,101645.72
2024-04-12T14:15:00.963Z,101647.85
2024-04-12T14:18:29.905Z,101646.46
2024-04-12T14:21:58.468Z,101648.80
2024-04-12T14:25:27.135Z,101642.36
2024-04-12T14:28:55.654Z,101635.95
2024-04-12T14:32:27.335Z,101630.20
2024-04-12T14:35:58.891Z,101626.59
2024-04-12T14:39:27.663Z,101614.95
2024-04-12T14:42:48.539Z,101612.86
2024-04-12T14:46:17.053Z,101609.05
2024-04-12T14:49:45.602Z,101601.45
2024-04-12T14:53:14.305Z,101602.55
2024-04-12T14:56:44.843Z,101595.70
2024-04-12T15:00:14.859Z,101592.98
2024-04-12T15:03:34.938Z,101589.19
2024-04-12T15:07:02.468Z,101583.09
2024-04-12T15:10:29.462Z,101578.42
2024-04-12T15:13:36.151Z,101572.69
2024-04-12T15:17:01.978Z,101570.48
2024-04-12T15:20:29.118Z,101567.76
2024-04-12T15:23:56.582Z,101571.91
2024-04-12T15:27:23.558Z,101570.78
2024-04-12T15:30:50.478Z,101571.83
2024-04-12T15:34:17.199Z,101568.48
2024-04-12T15:37:44.688Z,101560.40
2024-04-12T15:41:11.735Z,101562.84
2024-04-12T15:44:21.378Z,101567.69
2024-04-12T15:47:30.176Z,101564.35
2024-04-12T15:50:41.507Z,101559.90
2024-04-12T15:54:10.101Z,101556.84
2024-04-12T15:57:30.562Z,101557.04
2024-04-12T16:00:57.840Z,101560.86
2024-04-12T16:04:17.835Z,101555.55
2024-04-12T16:07:44.780Z,101558.98
2024-04-12T16:11:15.252Z,101559.87
2024-04-12T16:14:43.994Z,101557.66
2024-04-12T16:18:11.622Z,101554.05
2024-04-12T16:21:41.191Z,101555.61
2024-04-12T16:25:09.710Z,101553.56
2024-04-12T16:28:38.151Z,101551.67
2024-04-12T16:32:07.105Z,101543.60
2024-04-12T16:35:38.037Z,101542.41
2024-04-12T16:39:06.738Z,101535.38
2024-04-12T16:42:35.487Z,101523.86
2024-04-12T16:46:04.072Z,101519.75
2024-04-12T16:49:32.466Z,101515.98
2024-04-12T16:53:01.195Z,101526.46
2024-04-12T16:56:30.047Z,101531.93
2024-04-12T16:59:59.660Z,101523.69
2024-04-12T17:03:28.494Z,101519.23
2024-04-12T17:06:58.362Z,101516.48
2024-04-12T17:13:54.275Z,101494.00
2024-04-12T17:17:24.001Z,101486.78
2024-04-12T17:20:55.957Z,101487.47
2024-04-12T17:27:52.045Z,101487.63
2024-04-12T17:31:20.636Z,101484.17
2024-04-12T17:34:49.174Z,101482.80
2024-04-12T17:38:17.760Z,101474.57
2024-04-12T17:41:46.548Z,101466.85
2024-04-12T17:45:15.543Z,101458.10
2024-04-12T17:48:44.371Z,101452.27
2024-04-12T17:52:13.083Z,101454.32
2024-04-12T17:55:41.688Z,101456.52
2024-04-12T17:59:10.216Z,101456.85
2024-04-12T18:02:38.892Z,101461.12
2024-04-12T18:06:07.472Z,101456.28
2024-04-12T18:09:31.603Z,101453.52
2024-04-12T18:13:00.546Z,101449.02
2024-04-12T18:16:29.166Z,101446.21
2024-04-12T18:19:58.031Z,101440.70
2024-04-12T18:23:26.680Z,101441.35
2024-04-12T18:26:55.226Z,101443.69
2024-04-12T18:30:23.845Z,101439.89
2024-04-12T18:33:52.632Z,101438.66
2024-04-12T18:37:33.542Z,101429.22
2024-04-12T18:41:00.925Z,101415.86
2024-04-12T18:44:07.403Z,101425.40
2024-04-12T18:47:36.396Z,101427.56
2024-04-12T18:51:05.431Z,101432.15
2024-04-12T18:54:33.940Z,101428.86
2024-04-12T18:57:54.876Z,101426.23
2024-04-12T19:01:29.281Z,101426.02
2024-04-12T19:04:58.216Z,101428.70
2024-04-12T19:08:26.766Z,101427.95
2024-04-12T19:11:55.308Z,101422.23
2024-04-12T19:15:24.139Z,101418.75
2024-04-12T19:18:52.559Z,101420.71
2024-04-12T19:22:21.693Z,101422.82
2024-04-12T19:25:50.231Z,101425.65
2024-04-12T19:29:21.348Z,101418.27
2024-04-12T19:32:51.138Z,101420.27
2024-04-12T19:36:19.719Z,101417.98
2024-04-12T19:39:48.531Z,101414.54
2024-04-12T19:43:17.159Z,101411.92
2024-04-12T19:46:48.674Z,101406.23
2024-04-12T19:50:17.550Z,101405.02
2024-04-12T19:53:45.167Z,101403.09
2024-04-12T19:57:13.832Z,101400.67
2024-04-12T20:00:43.462Z,101395.02
2024-04-12T20:04:12.166Z,101394.85
2024-04-12T20:07:40.619Z,101388.99
2024-04-12T20:11:09.751Z,101385.20
2024-04-12T20:14:38.612Z,101384.17
2024-04-12T20:18:06.728Z,101381.27
2024-04-12T20:21:37.640Z,101377.66
2024-04-12T20:28:55.189Z,101373.95
2024-04-12T20:32:23.858Z,101368.94
2024-04-12T20:35:55.875Z,101369.95
2024-04-12T20:39:24.746Z,101368.95
2024-04-12T20:42:53.762Z,101365.35
2024-04-12T20:46:22.578Z,101363.50
2024-04-12T20:49:51.283Z,101363.00
2024-04-12T20:53:11.854Z,101360.30
2024-04-12T20:56:40.731Z,101360.35
2024-04-12T21:00:11.719Z,101361.23
2024-04-12T21:03:40.501Z,101359.23
2024-04-12T21:07:13.701Z,101356.18
2024-04-12T21:10:42.915Z,101347.67
2024-04-12T21:14:11.513Z,101345.30
2024-04-12T21:17:40.427Z,101341.56
2024-04-12T21:21:09.829Z,101340.86
2024-04-12T21:24:38.430Z,101336.77
2024-04-12T21:28:07.058Z,101333.54
2024-04-12T21:31:38.726Z,101332.81
2024-04-12T21:35:07.307Z,101329.91
2024-04-12T21:38:36.186Z,101329.03
2024-04-12T21:42:06.903Z,101318.92
2024-04-12T21:45:35.546Z,101323.71
2024-04-12T21:49:04.109Z,101326.28
2024-04-12T21:52:32.632Z,101326.25
2024-04-12T21:55:54.010Z,101315.66
2024-04-12T21:59:22.497Z,101311.89
2024-04-12T22:02:51.041Z,101312.71
2024-04-12T22:06:19.906Z,101319.49
2024-04-12T22:09:48.514Z,101314.49
2024-04-12T22:13:17.063Z,101310.52
2024-04-12T22:16:57.525Z,101311.66
2024-04-12T22:20:26.068Z,101309.04
2024-04-12T22:23:54.525Z,101303.13
2024-04-12T22:27:23.319Z,101298.13
2024-04-12T22:30:52.145Z,101292.08
2024-04-12T22:34:13.596Z,101292.56
2024-04-12T22:37:42.305Z,101290.13
2024-04-12T22:41:11.306Z,101284.46
2024-04-12T22:44:40.096Z,101274.71
2024-04-12T22:48:08.787Z,101277.41
2024-04-12T22:51:38.213Z,101273.77
2024-04-12T22:55:06.626Z,101267.92
2024-04-12T22:58:35.572Z,101269.23
2024-04-12T23:01:54.131Z,101263.89
2024-04-12T23:05:22.841Z,101260.27
2024-04-12T23:08:51.914Z,101256.32
2024-04-12T23:12:20.840Z,101251.03
2024-04-12T23:15:42.049Z,101244.73
2024-04-12T23:19:10.903Z,101244.23
2024-04-12T23:22:39.461Z,101241.56
2024-04-12T23:26:08.349Z,101239.55
2024-04-12T23:29:36.885Z,101238.58
2024-04-12T23:32:58.499Z,101238.96
2024-04-12T23:36:27.807Z,101232.85
2024-04-12T23:39:56.557Z,101228.96
2024-04-12T23:43:25.247Z,101225.59
2024-04-12T23:46:53.695Z,101221.90
2024-04-12T23:50:22.531Z,101218.88
2024-04-12T23:53:51.321Z,101212.59
2024-04-12T23:57:02.842Z,101215.70
